ACT        NSW        VIC        QLD        SA        WA        TAS        NT        INFO        CALC            by VK5ZD

  Atmospheric Gas Attenuation - ITU Rec 676-11   --------------- db/100km ---------------
Station Date Time Temp RH % AH g/m3 Dew Point Wind Direction Speed kph Gust kph Barometer mB Rainfall Since 9am 24GHz 47GHz 76GHz 122GHz 134GHz 241GHz
Bushy Park 17 01:40 5.3 94 6.52 4.4 7 9 1013.1 0 15.5 24.9 35.3 92.4 80.2 273.7
Butlers Gorge 17 01:40 0.4 93 4.64 -0.6 0 0 1013.1 0 11.6 23.1 29.6 77.1 59.1 198.9
Campania 17 01:40 4.4 92 6.01 3.2 15 17 1013.1 0 14.4 24.3 33.6 87.8 74.2 252.4
Cape Bruny 16 15:00 11.9 66 6.99 5.7 0 1013.1 0 16.2 23.9 34.3 89.8 79.7 272.6
Cape Bruny Aws 17 01:40 5.7 92 6.55 4.5 15 17 1023.9 0 15.5 25.3 35.7 93.4 81.0 276.3
Cape Grim 17 01:40 6.1 84 6.14 3.6 0 0 1023.7 0.2 14.6 24.5 33.9 88.4 75.0 255.3
Cape Sorell 17 01:40 4.9 92 6.21 3.7 19 20 1013.1 0 14.8 24.5 34.2 89.5 76.4 260.3
Cressy 17 01:40 0 95 4.61 -0.7 0 0 1013.1 0 11.6 23.2 29.6 77.1 59.0 198.5
Dennes Point 17 01:40 4.8 89 5.97 3.1 11 11 1013.1 0 14.3 24.1 33.3 87.0 73.3 249.2
Devonport Airport 17 01:40 5.4 87 6.07 3.4 19 20 1024.6 0 14.5 24.6 33.9 88.5 74.8 254.5
Dunalley 17 01:40 7.1 89 6.94 5.5 4 6 1013.1 0 16.3 25.1 36.3 94.9 84.0 287.3
Fingal 17 01:40 4.2 88 5.67 2.4 13 13 1013.1 0 13.7 23.8 32.3 84.4 69.8 236.9
Flinders Island Airport 17 01:40 7.5 99 7.93 7.4 4 6 1023.5 0.2 18.4 27.1 40.7 106.6 98.1 336.5
Friendly Beaches 17 01:40 7 98 7.6 6.7 11 13 1013.1 0.8 17.8 26.2 39.1 102.4 93.3 319.6
Grove 16 21:30 0.5 96 4.82 0 7 7 1013.1 0 12.0 23.4 30.3 78.9 61.5 207.2
Hartz Mountains 17 01:40 0.1 98 4.79 -0.2 17 19 1013.1 0 11.9 23.4 30.3 79.0 61.4 206.8
Hobart 17 01:40 5.1 82 5.61 2.3 4 7 1024.1 0 13.5 23.9 32.2 83.8 68.9 233.6
Hobart Airport 17 01:40 4.3 90 5.84 2.8 6 9 1024.6 0 14.1 24.5 33.4 87.2 72.7 247.1
King Island Airport 17 01:40 1.3 99 5.25 1.2 0 0 1024.3 0 12.9 24.3 32.2 83.9 67.3 227.7
Kunanyi / Mount Wellington 17 01:40 0.9 59 3.05 -6.2 6 6 1013.1 1.2 8.2 20.5 23.2 60.0 38.2 125.5
Larapuna (Eddystone Point) 17 01:40 9 93 8.2 7.9 20 22 1023.5 1.6 19.0 27.1 41.1 107.6 100.0 343.2
Launceston 17 01:40 1.6 99 5.36 1.4 4 4 1013.1 0 13.1 24.0 32.1 83.8 67.9 229.9
Launceston Airport 17 01:40 1.4 94 5.02 0.5 2 4 1024.2 0 12.4 23.9 31.2 81.2 64.1 216.3
Low Head 17 01:30 6.7 100 7.6 6.7 20 26 1024.1 0 17.8 26.8 39.7 104.0 94.5 323.7
Low Rocky Point 17 01:40 3.8 92 5.78 2.6 22 24 1024 0 14.0 24.5 33.4 87.0 72.3 245.6
Luncheon Hill 17 01:40 5.6 85 6.01 3.3 19 20 1013.1 0 14.4 24.0 33.1 86.5 73.0 248.5
Macquarie Island 17 01:40 4.6 92 6.09 3.4 41 44 1019 1 14.6 24.6 34.1 89.1 75.5 256.8
Maria Island 17 01:40 8.2 91 7.62 6.8 0 2 1013.1 0 17.7 25.9 38.6 101.1 92.1 315.6
Maydena 16 15:00 10.6 67 6.54 4.7 9 1013.1 0 15.3 23.5 33.1 86.6 75.2 256.8
Ouse 17 01:40 3.3 86 5.22 1.2 9 11 1024.8 0 12.8 23.7 31.3 81.5 65.2 220.7
Pws B 17 01:30 -2.5 100 4.08 -2.5 0 0 1013.1 0 10.5 22.9 28.3 73.7 53.6 179.2
Pws C 17 01:00 -0.9 92 4.19 -2 4 4 1013.1 0.2 10.7 22.7 28.2 73.4 54.0 180.7
Pws D 17 01:30 -0.2 99 4.74 -0.3 9 11 1014.8 0 11.8 23.5 30.3 78.9 61.0 205.5
Scotts Peak 17 01:40 2.2 100 5.64 2.2 9 9 1013.1 0 13.7 24.3 33.0 86.2 71.2 241.6
Scottsdale 17 01:40 4.5 82 5.39 1.7 11 11 1023.4 0 13.1 23.6 31.5 82.0 66.4 225.0
Sheffield 17 01:40 3.2 99 5.97 3 6 7 1013.1 0 14.4 24.6 34.0 88.8 74.8 254.4
Smithton 17 01:40 -0.5 97 4.55 -0.9 9 9 1024 0 11.5 23.6 30.0 78.0 59.2 198.8
St Helens 17 01:40 7.3 92 7.27 6.1 7 9 1023.8 0.4 17.0 26.0 38.0 99.4 89.1 305.1
Strahan 17 01:40 1 96 4.99 0.4 0 2 1024.6 0 12.4 24.0 31.3 81.4 64.0 216.1
Swan Island 17 01:40 9.8 80 7.42 6.5 9 11 1013.1 0 17.2 25.1 37.0 96.8 87.5 299.9
Tasman Island 17 01:40 7.4 96 7.64 6.8 6 9 1013.1 0.6 17.8 26.2 39.0 102.3 93.3 319.9
Tunnack 17 01:40 3.7 100 6.24 3.7 0 0 1023.5 0 15.0 25.3 35.3 92.2 78.7 268.1
Warra 17 01:40 0.9 93 4.8 -0.1 0 0 1013.1 0 11.9 23.2 30.1 78.3 60.9 205.2
Wynyard 17 01:40 0.3 98 4.85 0 13 13 1024.2 0 12.1 23.9 30.9 80.5 62.7 211.2

Last Refresh: 17-Jul-2020 01:17:46

The information presented on this site is sourced from the Bureau of Meteorology.  Copyright in all material sourced from the Bureau of Meteorology resides with the Commonwealth of Australia.